createdAt,value
2018-12-12T00:01:15.610Z,67.50
2018-12-12T00:03:18.622Z,67.50
2018-12-12T00:05:21.587Z,67.50
2018-12-12T00:07:24.473Z,67.50
2018-12-12T00:09:27.482Z,67.40
2018-12-12T00:11:31.142Z,67.40
2018-12-12T00:13:34.039Z,67.40
2018-12-12T00:15:36.943Z,67.50
2018-12-12T00:17:40.606Z,67.60
2018-12-12T00:19:43.524Z,67.50
2018-12-12T00:21:46.411Z,67.50
2018-12-12T00:23:50.046Z,67.60
2018-12-12T00:25:52.974Z,67.60
2018-12-12T00:27:56.629Z,67.60
2018-12-12T00:29:59.616Z,67.60
2018-12-12T00:32:03.022Z,67.60
2018-12-12T00:34:05.914Z,67.60
2018-12-12T00:36:08.824Z,67.60
2018-12-12T00:38:12.508Z,67.60
2018-12-12T00:40:16.167Z,67.60
2018-12-12T00:42:19.046Z,67.60
2018-12-12T00:44:21.941Z,67.50
2018-12-12T00:46:24.959Z,67.50
2018-12-12T00:48:28.626Z,67.60
2018-12-12T00:50:31.522Z,67.60
2018-12-12T00:52:35.184Z,68.40
2018-12-12T00:54:38.229Z,67.60
2018-12-12T00:56:41.866Z,67.70
2018-12-12T00:58:44.776Z,67.60
2018-12-12T01:00:47.669Z,67.70
2018-12-12T01:02:51.326Z,67.80
2018-12-12T01:04:54.227Z,67.70
2018-12-12T01:06:58.061Z,67.70
2018-12-12T01:09:01.796Z,67.70
2018-12-12T01:11:10.420Z,67.70
2018-12-12T01:13:13.294Z,67.70
2018-12-12T01:15:16.178Z,67.70
2018-12-12T01:17:19.133Z,67.70
2018-12-12T01:19:22.904Z,67.80
2018-12-12T01:21:25.798Z,67.70
2018-12-12T01:23:29.467Z,67.90
2018-12-12T01:25:32.346Z,67.90
2018-12-12T01:27:35.236Z,67.90
2018-12-12T01:29:38.900Z,68.10
2018-12-12T01:31:41.827Z,68.10
2018-12-12T01:33:44.707Z,68.80
2018-12-12T01:35:47.590Z,68.10
2018-12-12T01:37:51.254Z,68.60
2018-12-12T01:39:54.158Z,68.10
2018-12-12T01:41:57.047Z,68.10
2018-12-12T01:43:59.944Z,68.20
2018-12-12T01:46:03.657Z,68.20
2018-12-12T01:48:06.610Z,68.20
2018-12-12T01:50:10.994Z,68.20
2018-12-12T01:52:13.922Z,68.10
2018-12-12T01:54:17.579Z,68.20
2018-12-12T01:56:20.498Z,68.10
2018-12-12T01:58:23.438Z,68.10
2018-12-12T02:00:26.335Z,68.10
2018-12-12T02:02:29.258Z,68.50
2018-12-12T02:04:33.200Z,68.20
2018-12-12T02:06:36.123Z,68.20
2018-12-12T02:08:39.138Z,68.20
2018-12-12T02:10:42.780Z,68.30
2018-12-12T02:12:45.688Z,68.30
2018-12-12T02:14:48.576Z,68.30
2018-12-12T02:16:52.248Z,67.80
2018-12-12T02:18:55.149Z,68.30
2018-12-12T02:20:58.805Z,69.20
2018-12-12T02:23:01.715Z,68.40
2018-12-12T02:25:04.743Z,68.50
2018-12-12T02:27:07.703Z,68.50
2018-12-12T02:29:10.585Z,68.40
2018-12-12T02:31:14.883Z,68.40
2018-12-12T02:33:17.752Z,68.40
2018-12-12T02:35:20.653Z,68.40
2018-12-12T02:37:23.563Z,68.50
2018-12-12T02:39:27.201Z,68.60
2018-12-12T02:41:30.804Z,68.50
2018-12-12T02:43:33.708Z,68.50
2018-12-12T02:45:36.593Z,68.50
2018-12-12T02:47:39.490Z,68.50
2018-12-12T02:49:43.172Z,68.60
2018-12-12T02:51:46.823Z,68.80
2018-12-12T02:53:49.736Z,68.40
2018-12-12T02:55:52.639Z,68.50
2018-12-12T02:57:55.531Z,68.50
2018-12-12T02:59:59.217Z,69.20
2018-12-12T03:02:02.112Z,68.50
2018-12-12T03:04:05.113Z,68.50
2018-12-12T03:06:08.740Z,68.50
2018-12-12T03:08:11.652Z,68.50
2018-12-12T03:10:14.604Z,68.50
2018-12-12T03:12:17.487Z,68.50
2018-12-12T03:14:20.390Z,68.50
2018-12-12T03:16:23.283Z,68.50
2018-12-12T03:18:26.194Z,68.40
2018-12-12T03:20:29.968Z,68.50
2018-12-12T03:22:32.894Z,68.50
2018-12-12T03:24:36.535Z,68.50
2018-12-12T03:26:39.422Z,68.60
2018-12-12T03:28:42.320Z,68.40
2018-12-12T03:30:46.039Z,68.60
2018-12-12T03:32:49.700Z,68.70
2018-12-12T03:34:52.587Z,68.50
2018-12-12T03:36:55.509Z,68.50
2018-12-12T03:38:59.200Z,68.60
2018-12-12T03:41:02.831Z,68.60
2018-12-12T03:43:05.863Z,68.50
2018-12-12T03:45:08.736Z,68.50
2018-12-12T03:47:11.621Z,68.50
2018-12-12T03:49:14.543Z,68.50
2018-12-12T03:51:17.424Z,68.50
2018-12-12T03:53:20.315Z,68.60
2018-12-12T03:55:23.204Z,68.60
2018-12-12T03:57:27.624Z,68.60
2018-12-12T03:59:31.049Z,68.60
2018-12-12T04:01:33.968Z,68.70
2018-12-12T04:03:37.643Z,68.90
2018-12-12T04:05:42.131Z,68.90
2018-12-12T04:07:45.021Z,68.90
2018-12-12T04:09:47.911Z,68.90
2018-12-12T04:11:50.922Z,68.90
2018-12-12T04:13:54.603Z,69.00
2018-12-12T04:15:58.339Z,69.10
2018-12-12T04:18:01.221Z,69.10
2018-12-12T04:20:04.103Z,69.20
2018-12-12T04:22:06.986Z,69.20
2018-12-12T04:24:10.051Z,69.30
2018-12-12T04:26:13.674Z,68.80
2018-12-12T04:28:16.608Z,69.30
2018-12-12T04:30:20.642Z,69.30
2018-12-12T04:32:24.280Z,69.40
2018-12-12T04:34:27.289Z,69.20
2018-12-12T04:36:30.683Z,69.30
2018-12-12T04:38:33.683Z,69.30
2018-12-12T04:40:37.371Z,69.50
2018-12-12T04:42:42.164Z,70.30
2018-12-12T04:44:45.063Z,69.50
2018-12-12T04:46:47.970Z,69.50
2018-12-12T04:48:51.604Z,69.90
2018-12-12T04:50:54.503Z,69.60
2018-12-12T04:52:57.375Z,69.70
2018-12-12T04:55:00.288Z,69.70
2018-12-12T04:57:03.163Z,69.70
2018-12-12T04:59:06.049Z,69.70
2018-12-12T05:01:10.707Z,69.70
2018-12-12T05:03:14.351Z,69.60
2018-12-12T05:05:17.367Z,69.60
2018-12-12T05:07:20.235Z,70.50
2018-12-12T05:09:23.128Z,69.70
2018-12-12T05:11:26.819Z,69.80
2018-12-12T05:13:29.711Z,69.80
2018-12-12T05:15:34.124Z,69.90
2018-12-12T05:17:37.115Z,69.80
2018-12-12T05:19:40.807Z,70.00
2018-12-12T05:21:43.807Z,69.90
2018-12-12T05:23:47.717Z,69.90
2018-12-12T05:25:51.391Z,69.90
2018-12-12T05:27:55.071Z,69.90
2018-12-12T05:29:58.058Z,69.90
2018-12-12T05:32:00.943Z,69.90
2018-12-12T05:34:03.845Z,70.00
2018-12-12T05:36:06.835Z,70.00
2018-12-12T05:38:10.483Z,70.20
2018-12-12T05:40:13.396Z,70.10
2018-12-12T05:42:16.602Z,70.10
2018-12-12T05:44:20.836Z,70.10
2018-12-12T05:46:23.743Z,70.00
2018-12-12T05:48:27.138Z,70.00
2018-12-12T05:50:30.052Z,69.90
2018-12-12T05:52:32.985Z,70.70
2018-12-12T05:54:35.815Z,70.10
2018-12-12T05:56:38.716Z,70.20
2018-12-12T05:58:41.836Z,70.20
2018-12-12T06:00:44.731Z,70.20
2018-12-12T06:02:47.610Z,70.30
2018-12-12T06:04:51.078Z,70.30
2018-12-12T06:06:53.991Z,70.30
2018-12-12T06:08:56.871Z,70.40
2018-12-12T06:10:59.823Z,70.30
2018-12-12T06:13:02.794Z,70.40
2018-12-12T06:15:06.488Z,71.30
2018-12-12T06:17:10.155Z,70.50
2018-12-12T06:19:13.027Z,70.50
2018-12-12T06:21:15.943Z,70.50
2018-12-12T06:23:20.192Z,70.60
2018-12-12T06:25:23.082Z,70.60
2018-12-12T06:27:26.000Z,70.60
2018-12-12T06:29:28.884Z,70.50
2018-12-12T06:31:31.792Z,70.60
2018-12-12T06:33:35.495Z,70.70
2018-12-12T06:35:39.131Z,70.60
2018-12-12T06:37:42.742Z,70.50
2018-12-12T06:39:45.739Z,70.50
2018-12-12T06:41:48.627Z,70.50
2018-12-12T06:43:51.544Z,70.50
2018-12-12T06:45:55.172Z,70.60
2018-12-12T06:47:58.066Z,70.50
2018-12-12T06:50:00.940Z,70.50
2018-12-12T06:52:03.894Z,70.60
2018-12-12T06:54:06.961Z,70.70
2018-12-12T06:56:09.910Z,70.70
2018-12-12T06:58:12.806Z,70.70
2018-12-12T07:00:16.476Z,71.00
2018-12-12T07:02:19.363Z,70.60
2018-12-12T07:04:22.250Z,70.70
2018-12-12T07:06:25.191Z,70.80
2018-12-12T07:08:28.107Z,70.70
2018-12-12T07:10:31.013Z,70.80
2018-12-12T07:12:34.012Z,70.80
2018-12-12T07:14:37.686Z,71.00
2018-12-12T07:16:40.575Z,71.00
2018-12-12T07:18:43.477Z,71.00
2018-12-12T07:20:47.142Z,71.10
2018-12-12T07:22:50.098Z,71.00
2018-12-12T07:24:53.018Z,71.00
2018-12-12T07:26:55.987Z,71.00
2018-12-12T07:29:01.299Z,71.00
2018-12-12T07:31:04.242Z,71.20
2018-12-12T07:33:07.892Z,71.40
2018-12-12T07:35:10.781Z,71.30
2018-12-12T07:37:13.696Z,71.40
2018-12-12T07:39:18.151Z,71.50
2018-12-12T07:41:20.734Z,71.40
2018-12-12T07:43:23.638Z,71.50
2018-12-12T07:45:26.519Z,71.50
2018-12-12T07:47:29.510Z,71.60
2018-12-12T07:49:33.180Z,72.20
2018-12-12T07:51:36.050Z,71.60
2018-12-12T07:53:38.962Z,71.60
2018-12-12T07:55:41.846Z,71.60
2018-12-12T07:57:44.737Z,71.60
2018-12-12T07:59:48.392Z,71.60
2018-12-12T08:01:51.495Z,71.60
2018-12-12T08:03:54.503Z,71.60
2018-12-12T08:05:58.570Z,71.70
2018-12-12T08:08:01.496Z,71.80
2018-12-12T08:10:04.471Z,71.80
2018-12-12T08:12:07.347Z,71.80
2018-12-12T08:14:10.335Z,71.80
2018-12-12T08:16:13.215Z,71.80
2018-12-12T08:18:16.136Z,71.90
2018-12-12T08:20:19.016Z,71.90
2018-12-12T08:22:21.915Z,71.90
2018-12-12T08:24:24.839Z,72.10
2018-12-12T08:26:29.259Z,72.20
2018-12-12T08:28:32.949Z,71.60
2018-12-12T08:30:38.163Z,72.10
2018-12-12T08:32:41.052Z,72.10
2018-12-12T08:34:43.967Z,72.10
2018-12-12T08:36:47.990Z,72.30
2018-12-12T08:38:50.843Z,72.20
2018-12-12T08:40:55.363Z,72.30
2018-12-12T08:42:58.359Z,72.20
2018-12-12T08:45:02.107Z,73.00
2018-12-12T08:47:04.978Z,72.30
2018-12-12T08:49:08.261Z,72.30
2018-12-12T08:51:10.779Z,72.40
2018-12-12T08:53:13.791Z,72.30
2018-12-12T08:55:17.956Z,72.40
2018-12-12T08:57:21.136Z,72.50
2018-12-12T08:59:24.054Z,72.50
2018-12-12T09:01:26.931Z,72.50
2018-12-12T09:03:29.915Z,72.50
2018-12-12T09:05:32.807Z,72.50
2018-12-12T09:07:35.783Z,72.60
2018-12-12T09:09:39.611Z,72.70
2018-12-12T09:11:43.656Z,72.60
2018-12-12T09:13:46.704Z,72.60
2018-12-12T09:15:50.359Z,72.70
2018-12-12T09:17:53.238Z,72.60
2018-12-12T09:19:56.651Z,72.60
2018-12-12T09:22:00.510Z,72.60
2018-12-12T09:24:03.420Z,72.50
2018-12-12T09:26:06.312Z,72.40
2018-12-12T09:28:09.197Z,72.30
2018-12-12T09:30:13.618Z,72.10
2018-12-12T09:32:17.279Z,72.10
2018-12-12T09:34:20.913Z,72.10
2018-12-12T09:36:25.411Z,72.10
2018-12-12T09:38:28.317Z,72.00
2018-12-12T09:40:32.025Z,72.10
2018-12-12T09:42:35.735Z,72.50
2018-12-12T09:44:39.385Z,71.80
2018-12-12T09:46:42.278Z,71.80
2018-12-12T09:48:45.166Z,71.90
2018-12-12T09:50:48.058Z,71.70
2018-12-12T09:52:51.728Z,71.70
2018-12-12T09:54:54.630Z,71.60
2018-12-12T09:56:57.541Z,71.50
2018-12-12T09:59:01.216Z,71.60
2018-12-12T10:01:04.188Z,71.50
2018-12-12T10:03:07.060Z,71.40
2018-12-12T10:05:10.259Z,71.30
2018-12-12T10:07:13.920Z,71.90
2018-12-12T10:09:16.811Z,71.10
2018-12-12T10:11:19.708Z,71.00
2018-12-12T10:13:22.610Z,71.00
2018-12-12T10:15:26.026Z,70.90
2018-12-12T10:17:29.679Z,70.90
2018-12-12T10:19:42.498Z,70.80
2018-12-12T10:31:41.707Z,70.70
2018-12-12T10:41:45.450Z,67.40
2018-12-12T10:51:46.420Z,67.40
2018-12-12T10:54:01.714Z,68.50
2018-12-12T11:01:47.640Z,68.40
2018-12-12T11:11:47.495Z,67.40
2018-12-12T11:21:46.861Z,67.30
2018-12-12T11:31:44.980Z,67.20
2018-12-12T11:41:46.776Z,67.30
2018-12-12T11:51:47.115Z,67.60
2018-12-12T12:01:45.443Z,67.60
2018-12-12T12:11:45.340Z,67.60
2018-12-12T12:21:36.960Z,67.00
2018-12-12T12:23:40.650Z,68.30
2018-12-12T12:25:43.558Z,67.40
2018-12-12T12:27:46.574Z,68.00
2018-12-12T12:29:51.395Z,68.20
2018-12-12T12:31:55.028Z,68.40
2018-12-12T12:34:03.198Z,68.30
2018-12-12T12:36:00.940Z,68.90
2018-12-12T12:38:03.866Z,68.80
2018-12-12T12:40:06.785Z,68.50
2018-12-12T12:42:09.656Z,68.10
2018-12-12T12:44:12.537Z,67.70
2018-12-12T12:46:15.548Z,67.30
2018-12-12T12:48:19.210Z,66.80
2018-12-12T12:50:22.084Z,66.60
2018-12-12T12:52:24.975Z,67.20
2018-12-12T12:54:27.906Z,66.20
2018-12-12T12:56:31.751Z,65.60
2018-12-12T12:58:34.822Z,65.50
2018-12-12T13:00:37.679Z,65.10
2018-12-12T13:02:41.323Z,64.60
2018-12-12T13:04:45.084Z,64.30
2018-12-12T13:06:48.977Z,64.00
2018-12-12T13:08:52.619Z,63.70
2018-12-12T13:10:55.643Z,63.70
2018-12-12T13:12:59.317Z,63.40
2018-12-12T13:15:02.193Z,63.10
2018-12-12T13:17:06.032Z,62.90
2018-12-12T13:19:09.679Z,61.90
2018-12-12T13:21:12.558Z,62.40
2018-12-12T13:23:15.598Z,62.30
2018-12-12T13:25:20.236Z,62.20
2018-12-12T13:27:23.859Z,62.00
2018-12-12T13:29:26.955Z,61.80
2018-12-12T13:31:29.870Z,61.70
2018-12-12T13:33:32.852Z,61.30
2018-12-12T13:35:36.556Z,61.80
2018-12-12T13:37:39.702Z,60.90
2018-12-12T13:39:42.654Z,60.70
2018-12-12T13:41:45.710Z,60.50
2018-12-12T13:43:48.649Z,60.10
2018-12-12T13:45:51.535Z,59.80
2018-12-12T13:47:54.845Z,59.60
2018-12-12T13:49:57.715Z,59.50
2018-12-12T13:52:00.729Z,59.40
2018-12-12T13:54:03.651Z,59.10
2018-12-12T13:56:06.520Z,59.00
2018-12-12T13:58:09.600Z,58.80
2018-12-12T14:00:12.498Z,58.60
2018-12-12T14:02:15.379Z,58.40
2018-12-12T14:04:22.786Z,58.50
2018-12-12T14:06:21.203Z,58.40
2018-12-12T14:08:25.387Z,58.80
2018-12-12T14:10:28.307Z,58.20
2018-12-12T14:12:32.947Z,58.00
2018-12-12T14:14:36.581Z,57.90
2018-12-12T14:16:39.496Z,57.80
2018-12-12T14:18:43.168Z,57.30
2018-12-12T14:20:46.153Z,57.70
2018-12-12T14:22:49.470Z,57.60
2018-12-12T14:24:52.492Z,57.60
2018-12-12T14:26:55.438Z,57.50
2018-12-12T14:28:58.323Z,57.50
2018-12-12T14:31:01.820Z,57.40
2018-12-12T14:33:05.488Z,57.50
2018-12-12T14:35:08.369Z,57.50
2018-12-12T14:37:11.239Z,57.50
2018-12-12T14:39:14.161Z,57.40
2018-12-12T14:41:18.539Z,57.50
2018-12-12T14:43:22.094Z,57.50
2018-12-12T14:45:26.391Z,57.60
2018-12-12T14:47:30.077Z,57.60
2018-12-12T14:49:32.953Z,57.60
2018-12-12T14:51:35.839Z,57.70
2018-12-12T14:53:38.815Z,57.90
2018-12-12T14:55:43.208Z,57.90
2018-12-12T14:57:46.104Z,57.80
2018-12-12T14:59:48.979Z,57.90
2018-12-12T15:01:51.881Z,58.10
2018-12-12T15:03:55.087Z,58.10
2018-12-12T15:05:57.997Z,58.20
2018-12-12T15:08:00.962Z,58.20
2018-12-12T15:10:03.867Z,58.20
2018-12-12T15:12:06.795Z,58.30
2018-12-12T15:14:09.790Z,58.40
2018-12-12T15:16:13.443Z,58.60
2018-12-12T15:18:16.339Z,58.50
2018-12-12T15:20:19.240Z,58.70
2018-12-12T15:22:22.120Z,58.80
2018-12-12T15:24:25.014Z,58.90
2018-12-12T15:26:28.667Z,59.20
2018-12-12T15:28:31.590Z,59.20
2018-12-12T15:30:35.248Z,59.20
2018-12-12T15:32:38.270Z,59.30
2018-12-12T15:34:42.388Z,59.40
2018-12-12T15:36:44.915Z,60.20
2018-12-12T15:38:47.804Z,59.50
2018-12-12T15:40:50.911Z,59.40
2018-12-12T15:42:54.617Z,59.50
2018-12-12T15:44:57.520Z,59.60
2018-12-12T15:47:01.223Z,59.90
2018-12-12T15:49:04.860Z,60.00
2018-12-12T15:51:07.800Z,60.00
2018-12-12T15:53:10.847Z,60.10
2018-12-12T15:55:13.736Z,60.10
2018-12-12T15:57:16.740Z,60.20
2018-12-12T15:59:20.406Z,60.40
2018-12-12T16:01:24.011Z,60.40
2018-12-12T16:03:27.004Z,60.40
2018-12-12T16:05:29.920Z,60.40
2018-12-12T16:07:33.716Z,60.40
2018-12-12T16:09:37.355Z,60.60
2018-12-12T16:11:40.264Z,60.40
2018-12-12T16:13:43.151Z,60.40
2018-12-12T16:15:46.127Z,60.40
2018-12-12T16:17:49.124Z,60.50
2018-12-12T16:19:52.776Z,61.30
2018-12-12T16:21:55.647Z,60.60
2018-12-12T16:23:58.788Z,60.60
2018-12-12T16:26:02.974Z,60.70
2018-12-12T16:28:05.851Z,60.60
2018-12-12T16:30:08.955Z,60.60
2018-12-12T16:32:13.335Z,60.90
2018-12-12T16:34:17.088Z,60.70
2018-12-12T16:36:20.770Z,60.90
2018-12-12T16:38:25.740Z,60.80
2018-12-12T16:40:29.157Z,60.80
2018-12-12T16:42:33.407Z,60.80
2018-12-12T16:44:36.291Z,60.70
2018-12-12T16:46:39.246Z,60.80
2018-12-12T16:48:42.251Z,61.60
2018-12-12T16:50:45.131Z,60.90
2018-12-12T16:52:49.564Z,60.70
2018-12-12T16:54:53.280Z,60.80
2018-12-12T16:56:56.130Z,60.70
2018-12-12T16:58:59.003Z,60.70
2018-12-12T17:01:02.102Z,60.60
2018-12-12T17:03:06.514Z,60.60
2018-12-12T17:05:09.425Z,60.60
2018-12-12T17:07:13.196Z,60.50
2018-12-12T17:09:18.249Z,60.30
2018-12-12T17:11:21.960Z,60.30
2018-12-12T17:13:25.737Z,59.80
2018-12-12T17:15:28.711Z,60.20
2018-12-12T17:17:31.578Z,60.20
2018-12-12T17:19:34.575Z,60.30
2018-12-12T17:21:37.871Z,60.30
2018-12-12T17:23:40.755Z,60.20
2018-12-12T17:25:43.828Z,60.20
2018-12-12T17:27:46.694Z,60.20
2018-12-12T17:29:49.571Z,60.20
2018-12-12T17:31:52.574Z,60.00
2018-12-12T17:33:55.455Z,60.00
2018-12-12T17:35:58.329Z,60.00
2018-12-12T17:38:01.215Z,59.90
2018-12-12T17:40:04.095Z,59.90
2018-12-12T17:42:06.971Z,59.80
2018-12-12T17:44:09.867Z,59.80
2018-12-12T17:46:12.747Z,59.70
2018-12-12T17:48:15.627Z,59.70
2018-12-12T17:50:18.620Z,59.60
2018-12-12T17:52:21.516Z,60.30
2018-12-12T17:54:25.155Z,59.60
2018-12-12T17:56:28.151Z,59.50
2018-12-12T17:58:31.027Z,59.50
2018-12-12T18:00:33.919Z,59.30
2018-12-12T18:02:36.891Z,59.30
2018-12-12T18:04:40.573Z,59.30
2018-12-12T18:06:43.465Z,59.30
2018-12-12T18:08:46.347Z,59.30
2018-12-12T18:10:49.243Z,59.20
2018-12-12T18:12:52.128Z,59.20
2018-12-12T18:14:55.023Z,59.20
2018-12-12T18:16:57.894Z,59.30
2018-12-12T18:19:00.767Z,59.20
2018-12-12T18:21:03.663Z,59.20
2018-12-12T18:23:06.548Z,59.30
2018-12-12T18:25:09.427Z,59.30
2018-12-12T18:27:12.506Z,59.30
2018-12-12T18:29:15.387Z,59.30
2018-12-12T18:31:18.267Z,59.40
2018-12-12T18:33:21.166Z,59.30
2018-12-12T18:35:24.837Z,59.40
2018-12-12T18:37:27.694Z,59.40
2018-12-12T18:39:30.620Z,59.40
2018-12-12T18:41:33.490Z,59.40
2018-12-12T18:43:36.367Z,59.40
2018-12-12T18:45:39.542Z,59.40
2018-12-12T18:47:42.407Z,59.50
2018-12-12T18:49:45.284Z,59.40
2018-12-12T18:51:48.271Z,59.50
2018-12-12T18:53:51.152Z,59.60
2018-12-12T18:55:54.027Z,59.60
2018-12-12T18:57:57.156Z,59.60
2018-12-12T19:00:00.028Z,59.70
2018-12-12T19:02:02.895Z,59.70
2018-12-12T19:04:05.856Z,59.70
2018-12-12T19:06:08.732Z,59.80
2018-12-12T19:08:11.617Z,59.90
2018-12-12T19:10:14.601Z,59.90
2018-12-12T19:12:17.479Z,59.90
2018-12-12T19:14:20.372Z,59.90
2018-12-12T19:16:23.275Z,60.00
2018-12-12T19:18:26.143Z,60.00
2018-12-12T19:20:29.008Z,60.00
2018-12-12T19:22:31.916Z,60.10
2018-12-12T19:24:34.819Z,60.00
2018-12-12T19:26:37.692Z,60.10
2018-12-12T19:28:41.355Z,60.30
2018-12-12T19:30:44.237Z,60.00
2018-12-12T19:32:47.105Z,60.20
2018-12-12T19:34:50.101Z,60.20
2018-12-12T19:36:52.982Z,60.30
2018-12-12T19:38:56.636Z,60.30
2018-12-12T19:41:00.509Z,60.50
2018-12-12T19:43:04.242Z,60.40
2018-12-12T19:45:07.159Z,60.40
2018-12-12T19:47:10.084Z,60.40
2018-12-12T19:49:12.987Z,60.50
2018-12-12T19:51:17.441Z,60.60
2018-12-12T19:53:20.355Z,60.50
2018-12-12T19:55:23.228Z,60.60
2018-12-12T19:57:26.149Z,60.60
2018-12-12T19:59:29.796Z,60.70
2018-12-12T20:01:32.691Z,60.70
2018-12-12T20:03:35.588Z,60.60
2018-12-12T20:05:41.321Z,60.70
2018-12-12T20:07:42.143Z,60.90
2018-12-12T20:09:45.023Z,60.80
2018-12-12T20:11:47.954Z,60.80
2018-12-12T20:13:51.597Z,60.90
2018-12-12T20:15:56.272Z,60.90
2018-12-12T20:17:59.972Z,61.00
2018-12-12T20:20:02.820Z,60.90
2018-12-12T20:22:05.712Z,60.90
2018-12-12T20:24:08.683Z,61.00
2018-12-12T20:26:11.543Z,61.00
2018-12-12T20:28:14.408Z,61.10
2018-12-12T20:30:17.310Z,61.10
2018-12-12T20:32:20.184Z,61.10
2018-12-12T20:34:23.115Z,61.10
2018-12-12T20:36:26.007Z,61.10
2018-12-12T20:38:29.699Z,61.10
2018-12-12T20:40:32.564Z,61.10
2018-12-12T20:42:36.455Z,61.00
2018-12-12T20:44:39.327Z,61.10
2018-12-12T20:46:42.208Z,61.10
2018-12-12T20:48:45.111Z,61.10
2018-12-12T20:50:49.500Z,61.20
2018-12-12T20:52:52.375Z,61.10
2018-12-12T20:54:55.359Z,61.20
2018-12-12T20:56:58.324Z,61.30
2018-12-12T20:59:01.131Z,61.20
2018-12-12T21:01:04.256Z,61.20
2018-12-12T21:03:07.888Z,61.60
2018-12-12T21:05:10.803Z,61.30
2018-12-12T21:07:13.755Z,61.20
2018-12-12T21:09:16.650Z,61.20
2018-12-12T21:11:19.527Z,61.30
2018-12-12T21:13:22.515Z,61.30
2018-12-12T21:15:25.382Z,61.40
2018-12-12T21:17:28.264Z,61.40
2018-12-12T21:19:31.260Z,61.30
2018-12-12T21:21:34.131Z,61.40
2018-12-12T21:23:37.010Z,61.40
2018-12-12T21:25:40.010Z,61.50
2018-12-12T21:27:42.883Z,61.50
2018-12-12T21:29:45.755Z,61.50
2018-12-12T21:31:48.693Z,61.50
2018-12-12T21:33:51.567Z,61.50
2018-12-12T21:36:00.737Z,61.60
2018-12-12T21:37:58.119Z,61.50
2018-12-12T21:40:00.983Z,61.50
2018-12-12T21:42:03.856Z,61.50
2018-12-12T21:44:06.842Z,61.50
2018-12-12T21:46:09.718Z,61.50
2018-12-12T21:48:12.659Z,61.50
2018-12-12T21:50:15.611Z,61.50
2018-12-12T21:52:18.475Z,61.50
2018-12-12T21:54:21.523Z,61.50
2018-12-12T21:56:24.402Z,61.60
2018-12-12T21:58:27.297Z,61.60
2018-12-12T22:00:30.184Z,61.50
2018-12-12T22:02:33.083Z,61.40
2018-12-12T22:04:37.329Z,61.30
2018-12-12T22:06:38.843Z,61.40
2018-12-12T22:08:41.754Z,61.30
2018-12-12T22:10:45.403Z,60.70
2018-12-12T22:12:48.273Z,61.10
2018-12-12T22:14:51.298Z,61.00
2018-12-12T22:16:54.111Z,60.90
2018-12-12T22:18:57.800Z,60.90
2018-12-12T22:21:01.471Z,60.90
2018-12-12T22:23:04.356Z,60.80
2018-12-12T22:25:07.276Z,60.70
2018-12-12T22:27:10.934Z,61.10
2018-12-12T22:29:13.807Z,60.50
2018-12-12T22:31:16.691Z,60.40
2018-12-12T22:33:20.033Z,60.30
2018-12-12T22:35:23.049Z,60.30
2018-12-12T22:37:25.979Z,60.30
2018-12-12T22:39:28.908Z,60.10
2018-12-12T22:41:31.778Z,60.00
2018-12-12T22:43:34.707Z,60.00
2018-12-12T22:45:37.620Z,59.90
2018-12-12T22:47:41.327Z,59.90
2018-12-12T22:49:44.240Z,59.90
2018-12-12T22:51:47.266Z,59.90
2018-12-12T22:53:50.971Z,59.90
2018-12-12T22:55:54.694Z,59.90
2018-12-12T22:57:58.380Z,59.80
2018-12-12T23:00:02.025Z,59.90
2018-12-12T23:02:04.951Z,59.80
2018-12-12T23:04:08.755Z,59.80
2018-12-12T23:06:12.441Z,59.60
2018-12-12T23:08:15.322Z,59.70
2018-12-12T23:10:19.321Z,59.80
2018-12-12T23:12:22.236Z,59.80
2018-12-12T23:14:25.888Z,59.70
2018-12-12T23:16:29.551Z,59.70
2018-12-12T23:18:32.461Z,60.70
2018-12-12T23:20:35.324Z,59.70
2018-12-12T23:22:38.305Z,59.70
2018-12-12T23:24:41.183Z,59.70
2018-12-12T23:26:44.895Z,59.60
2018-12-12T23:28:47.794Z,59.60
2018-12-12T23:30:50.693Z,59.60
2018-12-12T23:32:53.599Z,59.70
2018-12-12T23:34:56.484Z,59.70
2018-12-12T23:37:00.121Z,59.70
2018-12-12T23:39:03.037Z,59.70
2018-12-12T23:41:05.911Z,59.70
2018-12-12T23:43:08.788Z,59.80
2018-12-12T23:45:11.678Z,59.80
2018-12-12T23:47:14.568Z,59.70
2018-12-12T23:49:18.207Z,59.90
2018-12-12T23:51:21.293Z,59.80
2018-12-12T23:53:24.148Z,59.90
2018-12-12T23:55:27.054Z,59.90
2018-12-12T23:57:29.965Z,59.80
2018-12-12T23:59:32.893Z,59.80
